createdAt,value
2022-12-08T04:58:15.432Z,16.37
2022-12-08T05:01:18.520Z,16.67
2022-12-08T05:04:21.135Z,15.07
2022-12-08T05:07:23.748Z,14.35
2022-12-08T05:10:27.217Z,16.35
2022-12-08T05:13:30.304Z,15.23
2022-12-08T05:16:32.575Z,13.40
2022-12-08T05:19:35.507Z,16.67
2022-12-08T05:22:37.897Z,15.38
2022-12-08T05:25:40.457Z,16.15
2022-12-08T05:28:43.801Z,14.80
2022-12-08T05:31:46.806Z,16.17
2022-12-08T05:34:49.180Z,14.00
2022-12-08T05:37:52.098Z,17.15
2022-12-08T05:40:54.413Z,13.52
2022-12-08T05:43:56.968Z,13.52
2022-12-08T05:46:59.290Z,13.52
2022-12-08T05:50:02.289Z,15.30
2022-12-08T05:53:05.112Z,13.82
2022-12-08T05:56:07.859Z,14.40
2022-12-08T05:59:10.245Z,14.48
2022-12-08T06:02:12.846Z,15.20
2022-12-08T06:05:15.745Z,16.97
2022-12-08T06:08:18.173Z,15.43
2022-12-08T06:11:23.411Z,16.33
2022-12-08T06:14:25.657Z,15.32
2022-12-08T06:17:28.607Z,15.75
2022-12-08T06:20:31.143Z,16.10
2022-12-08T06:23:34.584Z,16.83
2022-12-08T06:26:37.393Z,16.02
2022-12-08T06:29:40.461Z,14.35
2022-12-08T06:32:43.185Z,15.50
2022-12-08T06:35:45.772Z,17.20
2022-12-08T06:38:48.392Z,17.98
2022-12-08T06:42:09.488Z,18.13
2022-12-08T06:45:13.598Z,19.30
2022-12-08T06:48:17.193Z,20.05
2022-12-08T06:51:23.398Z,25.52
2022-12-08T06:54:26.248Z,20.23
2022-12-08T06:57:28.693Z,21.77
2022-12-08T07:00:32.719Z,23.33
2022-12-08T07:06:37.866Z,20.45
2022-12-08T07:09:40.221Z,23.12
2022-12-08T07:12:43.034Z,22.48
2022-12-08T07:15:45.350Z,20.70
2022-12-08T07:18:47.975Z,20.88
2022-12-08T07:21:50.372Z,22.13
2022-12-08T07:24:52.994Z,22.63
2022-12-08T07:27:55.459Z,24.33
2022-12-08T07:30:58.246Z,22.23
2022-12-08T07:34:00.837Z,21.25
2022-12-08T07:37:03.542Z,23.00
2022-12-08T07:40:08.554Z,22.52
2022-12-08T07:43:11.347Z,21.98
2022-12-08T07:46:16.154Z,22.75
2022-12-08T07:49:19.293Z,26.50
2022-12-08T07:52:21.759Z,22.40
2022-12-08T07:55:25.202Z,24.67
2022-12-08T07:58:27.733Z,23.20
2022-12-08T08:01:33.165Z,23.95
2022-12-08T08:04:35.769Z,23.70
2022-12-08T08:07:38.822Z,22.50
2022-12-08T08:10:41.494Z,24.67
2022-12-08T08:13:43.774Z,26.98
2022-12-08T08:16:48.107Z,22.17
2022-12-08T08:19:50.588Z,20.90
2022-12-08T08:22:53.273Z,21.90
2022-12-08T08:25:58.325Z,22.05
2022-12-08T08:29:01.353Z,25.12
2022-12-08T08:32:03.704Z,25.10
2022-12-08T08:35:06.654Z,23.43
2022-12-08T08:38:09.062Z,21.53
2022-12-08T08:41:11.790Z,23.37
2022-12-08T08:44:14.980Z,23.05
2022-12-08T08:47:17.692Z,21.00
2022-12-08T08:50:19.994Z,23.67
2022-12-08T08:53:23.193Z,26.02
2022-12-08T08:56:25.709Z,18.92
2022-12-08T08:59:28.986Z,18.37
2022-12-08T09:02:31.853Z,17.73
2022-12-08T09:05:34.536Z,16.62
2022-12-08T09:08:36.887Z,20.35
2022-12-08T09:11:39.600Z,16.10
2022-12-08T09:14:42.174Z,17.77
2022-12-08T09:17:44.742Z,17.65
2022-12-08T09:20:47.111Z,18.05
2022-12-08T09:23:55.887Z,20.30
2022-12-08T09:26:58.280Z,19.90
2022-12-08T09:30:01.070Z,17.13
2022-12-08T09:33:03.747Z,16.90
2022-12-08T09:36:06.700Z,17.83
2022-12-08T09:39:09.510Z,17.95
2022-12-08T09:42:12.640Z,18.52
2022-12-08T09:45:17.964Z,18.10
2022-12-08T09:48:29.591Z,16.90
2022-12-08T09:51:38.157Z,16.62
2022-12-08T09:54:41.216Z,17.15
2022-12-08T09:57:44.756Z,17.65
2022-12-08T10:00:47.515Z,17.73
2022-12-08T10:03:50.502Z,18.83
2022-12-08T10:07:02.548Z,18.62
2022-12-08T10:10:22.397Z,19.52
2022-12-08T10:13:44.866Z,17.70
2022-12-08T10:16:50.424Z,20.08
2022-12-08T10:20:02.434Z,20.65
2022-12-08T10:23:24.185Z,16.40
2022-12-08T10:26:26.645Z,16.27
2022-12-08T10:29:29.666Z,15.75
2022-12-08T10:32:35.374Z,15.55
2022-12-08T10:35:47.716Z,12.93
2022-12-08T10:38:50.033Z,12.18
2022-12-08T10:41:52.599Z,10.65
2022-12-08T10:44:59.687Z,10.57
2022-12-08T10:48:04.355Z,12.52
2022-12-08T10:51:25.206Z,9.98
2022-12-08T10:54:33.023Z,9.55
2022-12-08T10:57:38.688Z,10.15
2022-12-08T11:00:41.545Z,12.20
2022-12-08T11:03:51.525Z,9.82
2022-12-08T11:06:54.182Z,11.32
2022-12-08T11:09:58.292Z,12.13
2022-12-08T11:13:03.613Z,11.65
2022-12-08T11:16:07.166Z,12.00
2022-12-08T11:19:15.849Z,12.20
2022-12-08T11:22:30.874Z,11.88
2022-12-08T11:25:33.444Z,11.60
2022-12-08T11:31:44.195Z,12.70
2022-12-08T11:34:53.257Z,11.20
2022-12-08T11:38:20.499Z,11.52
2022-12-08T11:41:28.883Z,11.52
2022-12-08T11:44:42.114Z,11.52
2022-12-08T11:47:56.017Z,11.90
2022-12-08T11:51:12.269Z,13.15
2022-12-08T11:54:25.814Z,10.50
2022-12-08T12:00:32.101Z,12.18
2022-12-08T12:03:44.693Z,11.40
2022-12-08T12:06:55.693Z,12.50
2022-12-08T12:10:50.796Z,10.80
2022-12-08T12:14:17.447Z,12.18
2022-12-08T12:17:36.322Z,10.60
2022-12-08T12:20:51.626Z,10.50
2022-12-08T12:23:54.776Z,10.85
2022-12-08T12:27:06.688Z,10.90
2022-12-08T12:30:21.376Z,12.30
2022-12-08T12:36:26.668Z,11.12
2022-12-08T12:39:33.484Z,11.00
2022-12-08T12:42:45.492Z,11.30
2022-12-08T12:45:48.034Z,12.00
2022-12-08T12:48:51.971Z,11.77
2022-12-08T12:51:55.493Z,12.60
2022-12-08T12:54:58.023Z,11.00
2022-12-08T12:58:18.741Z,11.77
2022-12-08T13:01:21.278Z,11.52
2022-12-08T13:04:55.648Z,12.43
2022-12-08T13:08:21.527Z,12.18
2022-12-08T13:11:25.374Z,12.68
2022-12-08T13:14:34.428Z,11.00
2022-12-08T13:17:38.540Z,11.73
2022-12-08T13:20:50.472Z,10.45
2022-12-08T13:24:14.123Z,10.75
2022-12-08T13:30:45.946Z,9.82
2022-12-08T13:33:49.083Z,11.63
2022-12-08T13:37:10.356Z,9.63
2022-12-08T13:40:21.537Z,10.18
2022-12-08T13:43:48.413Z,11.75
2022-12-08T13:57:54.985Z,11.52
2022-12-08T14:01:20.877Z,10.80
2022-12-08T14:07:51.757Z,11.00
2022-12-08T14:11:00.869Z,12.48
2022-12-08T14:14:08.865Z,15.00
2022-12-08T14:17:13.966Z,16.02
2022-12-08T14:20:31.295Z,17.85
2022-12-08T14:23:37.238Z,15.38
2022-12-08T14:26:39.637Z,16.25
2022-12-08T14:29:48.574Z,14.52
2022-12-08T14:32:55.638Z,12.10
2022-12-08T14:35:59.021Z,12.35
2022-12-08T14:39:02.016Z,11.98
2022-12-08T14:42:06.246Z,11.85
2022-12-08T14:45:13.185Z,11.48
2022-12-08T14:48:33.564Z,10.68
2022-12-08T14:51:36.899Z,12.10
2022-12-08T14:54:42.828Z,12.30
2022-12-08T14:57:49.196Z,12.00
2022-12-08T15:00:54.601Z,12.35
2022-12-08T15:04:14.571Z,13.18
2022-12-08T15:07:21.471Z,11.65
2022-12-08T15:10:29.654Z,11.57
2022-12-08T15:13:32.241Z,12.02
2022-12-08T15:16:34.528Z,10.48
2022-12-08T15:19:37.351Z,14.32
2022-12-08T15:22:39.908Z,15.48
2022-12-08T15:25:42.540Z,17.40
2022-12-08T15:28:45.006Z,14.18
2022-12-08T15:31:49.657Z,15.63
2022-12-08T15:34:51.973Z,14.77
2022-12-08T15:37:54.951Z,12.27
2022-12-08T15:41:00.583Z,12.53
2022-12-08T15:44:03.173Z,15.70
2022-12-08T15:47:06.110Z,11.10
2022-12-08T15:50:16.701Z,14.80
2022-12-08T15:53:19.051Z,13.20
2022-12-08T15:56:29.042Z,11.63
2022-12-08T15:59:31.801Z,12.57
2022-12-08T16:03:05.083Z,12.63
2022-12-08T16:06:44.608Z,13.07
2022-12-08T16:09:34.426Z,13.60
2022-12-08T16:16:22.827Z,12.77
2022-12-08T16:19:25.696Z,15.18
2022-12-08T16:22:54.207Z,14.05
2022-12-08T16:26:20.156Z,14.50
2022-12-08T16:29:22.740Z,15.32
2022-12-08T16:32:28.559Z,15.07
2022-12-08T16:35:31.230Z,13.73
2022-12-08T16:38:35.415Z,12.52
2022-12-08T16:42:00.775Z,10.80
2022-12-08T16:45:17.188Z,11.27
2022-12-08T16:48:20.597Z,11.20
2022-12-08T16:51:26.735Z,11.98
2022-12-08T16:54:29.718Z,10.52
2022-12-08T16:57:32.307Z,11.68
2022-12-08T17:00:37.553Z,11.90
